Time;durP1;ratioP1;P1;durP2;ratioP2;P2;SDS_P1;SDS_P2;PMS_P1;PMS_P2;Temp;Humidity;BMP_temperature;BMP_pressure;BME280_temperature;BME280_humidity;BME280_pressure;Samples;Min_cycle;Max_cycle;Signal;HPM_P1;HPM_P2
2022/08/22 00:02:29;;;;;;;4.80;3.40;;;;;;;13.82;100.00;96518.13;4993934;28;20042;-65
2022/08/22 00:05:21;;;;;;;6.10;3.47;;;;;;;13.72;100.00;96526.00;5014488;28;20050;-65
2022/08/22 00:08:11;;;;;;;6.90;3.55;;;;;;;13.53;100.00;96516.13;5012731;28;20491;-64
2022/08/22 00:10:58;;;;;;;9.63;3.40;;;;;;;13.59;100.00;96516.53;5014534;28;20068;-64
2022/08/22 00:13:32;;;;;;;7.90;3.38;;;;;;;13.42;100.00;96520.84;5014590;28;20117;-65
2022/08/22 00:16:06;;;;;;;5.45;3.60;;;;;;;13.15;100.00;96518.38;5014418;28;20648;-64
2022/08/22 00:18:42;;;;;;;7.18;3.55;;;;;;;13.07;100.00;96508.53;5013564;28;20486;-64
2022/08/22 00:21:26;;;;;;;5.80;3.83;;;;;;;13.05;100.00;96505.34;5006156;28;20030;-64
2022/08/22 00:24:02;;;;;;;10.55;4.20;;;;;;;13.10;100.00;96506.97;5014592;28;20052;-63
2022/08/22 00:26:45;;;;;;;8.02;3.90;;;;;;;13.33;100.00;96506.66;5014046;28;20038;-63
2022/08/22 00:29:15;;;;;;;6.15;3.70;;;;;;;13.57;100.00;96502.38;5014431;28;20057;-64
2022/08/22 00:31:53;;;;;;;7.30;3.03;;;;;;;13.75;100.00;96497.66;5013071;28;20034;-63
2022/08/22 00:34:21;;;;;;;6.50;3.15;;;;;;;13.71;100.00;96496.88;5013647;28;20182;-64
2022/08/22 00:37:24;;;;;;;6.90;3.53;;;;;;;13.60;100.00;96495.31;5003508;28;20026;-64
2022/08/22 00:40:00;;;;;;;7.32;4.07;;;;;;;13.34;100.00;96495.28;5011704;28;20076;-65
2022/08/22 00:42:46;;;;;;;5.93;3.67;;;;;;;13.25;100.00;96496.78;5015148;28;20513;-64
2022/08/22 00:45:30;;;;;;;6.20;3.70;;;;;;;13.23;100.00;96488.13;5016115;28;20058;-64
2022/08/22 00:48:02;;;;;;;6.53;3.50;;;;;;;13.38;100.00;96489.78;5017098;28;20030;-64
2022/08/22 00:50:52;;;;;;;5.82;3.35;;;;;;;13.57;100.00;96494.91;5016505;28;20048;-64
2022/08/22 00:53:17;;;;;;;7.25;2.95;;;;;;;13.76;100.00;96493.75;4996578;28;20034;-63
2022/08/22 00:55:51;;;;;;;8.40;3.97;;;;;;;13.82;100.00;96499.66;4997211;28;20030;-64
2022/08/22 00:58:44;;;;;;;11.05;3.22;;;;;;;13.79;100.00;96505.94;5006747;28;20038;-63
2022/08/22 01:01:15;;;;;;;4.68;3.20;;;;;;;13.76;100.00;96502.00;5013827;28;20025;-64
2022/08/22 01:03:45;;;;;;;6.28;2.90;;;;;;;13.70;100.00;96513.78;5012575;28;20509;-64
2022/08/22 01:06:39;;;;;;;7.18;3.25;;;;;;;13.55;100.00;96516.53;5020804;28;20062;-64
2022/08/22 01:09:40;;;;;;;4.15;2.65;;;;;;;13.32;100.00;96508.59;5013524;28;20038;-63
2022/08/22 01:12:26;;;;;;;6.78;3.22;;;;;;;13.19;100.00;96513.66;4984950;28;20172;-63
2022/08/22 01:15:08;;;;;;;7.10;3.00;;;;;;;13.34;100.00;96511.78;5018610;28;20040;-63
2022/08/22 01:17:46;;;;;;;7.38;2.75;;;;;;;13.42;100.00;96512.56;5013737;28;20049;-63
2022/08/22 01:20:36;;;;;;;4.65;2.90;;;;;;;13.35;100.00;96518.06;5014119;28;20084;-63
2022/08/22 01:23:23;;;;;;;5.25;2.88;;;;;;;13.41;100.00;96511.00;5014350;28;20038;-63
2022/08/22 01:26:10;;;;;;;8.25;2.92;;;;;;;13.31;100.00;96515.31;5012729;28;20036;-63
2022/08/22 01:29:13;;;;;;;8.85;2.90;;;;;;;13.51;100.00;96512.22;5013829;28;20045;-63
2022/08/22 01:31:54;;;;;;;7.38;3.03;;;;;;;13.27;100.00;96517.22;5013308;28;20498;-63
2022/08/22 01:34:19;;;;;;;4.50;3.13;;;;;;;12.67;100.00;96513.06;5028555;28;20084;-63
2022/08/22 01:36:53;;;;;;;5.72;3.78;;;;;;;12.39;100.00;96506.25;5013326;28;20033;-64
2022/08/22 01:39:46;;;;;;;9.18;4.05;;;;;;;12.18;100.00;96503.34;5013661;28;20120;-63
2022/08/22 01:42:17;;;;;;;11.65;4.30;;;;;;;12.01;100.00;96508.34;5027545;28;20034;-63
2022/08/22 01:44:52;;;;;;;11.45;3.92;;;;;;;12.04;100.00;96504.81;5013711;28;20030;-64
2022/08/22 01:47:25;;;;;;;8.18;5.00;;;;;;;12.14;100.00;96503.31;5013314;28;20034;-64
2022/08/22 01:50:01;;;;;;;7.05;4.28;;;;;;;12.38;100.00;96504.66;5013232;28;20426;-64
2022/08/22 01:52:40;;;;;;;7.40;3.78;;;;;;;12.69;100.00;96504.44;5013088;28;20076;-64
2022/08/22 01:55:19;;;;;;;7.30;4.25;;;;;;;12.86;100.00;96502.94;5012706;28;20033;-65
2022/08/22 01:57:54;;;;;;;6.07;4.32;;;;;;;12.98;100.00;96505.34;5019502;28;20635;-64
2022/08/22 02:00:22;;;;;;;8.20;3.78;;;;;;;12.96;100.00;96504.94;5017852;28;20033;-65
2022/08/22 02:03:07;;;;;;;7.07;3.45;;;;;;;12.95;100.00;96512.41;5028259;28;20053;-65
2022/08/22 02:05:52;;;;;;;5.60;3.55;;;;;;;12.87;100.00;96508.03;5017593;28;20029;-65
2022/08/22 02:08:43;;;;;;;6.10;3.60;;;;;;;13.04;100.00;96509.31;5012926;28;20546;-64
2022/08/22 02:11:30;;;;;;;7.18;3.58;;;;;;;13.13;100.00;96517.97;5008937;28;20058;-65
2022/08/22 02:14:31;;;;;;;5.47;3.65;;;;;;;13.28;100.00;96509.75;5011318;28;20026;-64
2022/08/22 02:17:13;;;;;;;7.75;3.25;;;;;;;13.37;100.00;96521.22;5010155;28;20061;-65
2022/08/22 02:20:00;;;;;;;8.15;3.22;;;;;;;13.43;100.00;96521.59;5012292;28;20402;-64
2022/08/22 02:22:33;;;;;;;7.72;3.70;;;;;;;13.46;100.00;96518.09;5012533;28;20402;-64
2022/08/22 02:25:16;;;;;;;9.63;3.67;;;;;;;13.52;100.00;96525.56;5011282;28;20517;-64
2022/08/22 02:27:53;;;;;;;5.70;3.50;;;;;;;13.32;100.00;96519.59;5002354;28;20113;-64
2022/08/22 02:30:26;;;;;;;6.70;3.75;;;;;;;13.35;100.00;96515.31;4992487;28;20084;-62
2022/08/22 02:32:57;;;;;;;5.45;3.00;;;;;;;13.44;100.00;96520.44;4992419;28;20030;-63
2022/08/22 02:35:36;;;;;;;7.03;3.50;;;;;;;13.46;100.00;96507.84;4992244;28;20492;-63
2022/08/22 02:38:18;;;;;;;7.28;3.22;;;;;;;13.22;100.00;96514.84;4992456;28;20034;-64
2022/08/22 02:41:18;;;;;;;8.07;3.53;;;;;;;12.90;100.00;96509.25;5001994;28;20042;-64
2022/08/22 02:43:51;;;;;;;4.70;3.42;;;;;;;13.05;100.00;96504.56;4987098;28;20046;-64
2022/08/22 02:46:21;;;;;;;7.47;3.22;;;;;;;13.13;100.00;96500.69;5010467;28;20033;-64
2022/08/22 02:49:03;;;;;;;6.97;3.85;;;;;;;13.14;100.00;96511.31;5003649;28;20656;-63
2022/08/22 02:51:40;;;;;;;5.40;3.20;;;;;;;13.14;100.00;96516.00;5011742;28;20038;-63
2022/08/22 02:54:46;;;;;;;5.05;3.08;;;;;;;13.20;100.00;96517.22;5012124;28;20044;-64
2022/08/22 02:57:26;;;;;;;6.28;3.47;;;;;;;13.30;100.00;96513.69;4999087;28;20034;-63
2022/08/22 03:00:16;;;;;;;8.23;3.20;;;;;;;13.31;100.00;96504.31;5012329;28;20056;-65
2022/08/22 03:02:43;;;;;;;9.52;3.55;;;;;;;13.28;100.00;96505.03;5011314;28;20030;-64
2022/08/22 03:05:17;;;;;;;8.85;3.92;;;;;;;13.28;100.00;96504.25;5004037;28;20061;-63
2022/08/22 03:07:52;;;;;;;5.50;3.97;;;;;;;13.24;100.00;96504.25;5011587;28;20030;-63
2022/08/22 03:10:27;;;;;;;7.85;3.55;;;;;;;13.33;100.00;96503.91;5010046;28;20034;-64
2022/08/22 03:13:08;;;;;;;7.63;4.05;;;;;;;13.01;100.00;96504.56;5010887;28;20029;-63
2022/08/22 03:15:44;;;;;;;5.72;4.00;;;;;;;12.61;100.00;96501.66;5010178;28;20575;-64
2022/08/22 03:18:25;;;;;;;8.43;4.07;;;;;;;12.18;100.00;96500.59;5011112;28;20030;-63
2022/08/22 03:20:57;;;;;;;7.60;4.50;;;;;;;11.81;100.00;96493.22;5011310;28;20112;-64
2022/08/22 03:23:24;;;;;;;7.00;5.10;;;;;;;11.80;100.00;96499.91;5011373;28;20538;-64
2022/08/22 03:26:25;;;;;;;8.70;4.93;;;;;;;11.81;100.00;96495.97;5002276;28;20400;-64
2022/08/22 03:28:55;;;;;;;10.60;5.03;;;;;;;11.94;100.00;96500.03;5004249;28;20549;-64
2022/08/22 03:31:24;;;;;;;10.75;5.85;;;;;;;12.13;100.00;96498.22;5010479;28;20141;-64
2022/08/22 03:34:14;;;;;;;9.57;5.00;;;;;;;12.24;100.00;96499.88;5003233;28;20061;-64
2022/08/22 03:36:46;;;;;;;10.73;5.07;;;;;;;12.26;100.00;96495.94;5011535;28;20041;-64
2022/08/22 03:39:17;;;;;;;7.95;4.78;;;;;;;12.38;100.00;96496.41;5006487;28;20033;-64
2022/08/22 03:42:08;;;;;;;10.43;4.95;;;;;;;12.45;100.00;96492.94;5008020;28;20033;-64
2022/08/22 03:44:42;;;;;;;7.70;4.53;;;;;;;12.59;100.00;96504.00;5011267;28;20127;-64
2022/08/22 03:47:19;;;;;;;7.05;4.28;;;;;;;12.74;100.00;96501.31;5001994;28;20506;-64
2022/08/22 03:49:51;;;;;;;7.80;3.92;;;;;;;12.84;100.00;96503.34;5010620;28;20049;-64
2022/08/22 03:53:06;;;;;;;5.85;4.00;;;;;;;12.88;100.00;96501.38;5011118;28;20478;-64
2022/08/22 03:56:09;;;;;;;6.25;4.25;;;;;;;12.95;100.00;96493.16;5009539;28;20109;-64
2022/08/22 03:59:03;;;;;;;7.47;3.97;;;;;;;12.95;100.00;96500.63;4991358;28;20049;-64
2022/08/22 04:01:53;;;;;;;7.97;3.75;;;;;;;12.99;100.00;96501.41;4991560;28;20045;-64
2022/08/22 04:04:44;;;;;;;7.70;3.47;;;;;;;13.04;100.00;96503.03;4991574;28;20034;-64
2022/08/22 04:07:41;;;;;;;6.63;3.40;;;;;;;13.04;100.00;96506.56;4990961;28;20113;-64
2022/08/22 04:10:29;;;;;;;7.07;3.65;;;;;;;12.43;100.00;96503.50;5003992;28;20037;-64
2022/08/22 04:13:31;;;;;;;;;;;;;;;11.83;100.00;96499.94;5012196;28;20057;-65
2022/08/22 04:16:02;;;;;;;9.02;4.70;;;;;;;11.30;100.00;96497.47;5025603;28;19910;-64
2022/08/22 04:18:28;;;;;;;9.57;4.80;;;;;;;11.01;100.00;96494.44;5011383;28;20038;-63
2022/08/22 04:21:02;;;;;;;10.45;6.05;;;;;;;10.91;100.00;96492.34;5010840;28;20446;-64
2022/08/22 04:23:45;;;;;;;9.95;6.25;;;;;;;10.93;100.00;96492.78;5009675;28;20034;-63
2022/08/22 04:26:31;;;;;;;9.93;5.80;;;;;;;10.98;100.00;96495.16;5013170;28;20038;-64
2022/08/22 04:29:26;;;;;;;9.02;6.28;;;;;;;11.17;100.00;96488.72;5015210;28;20406;-64
2022/08/22 04:32:16;;;;;;;9.07;5.65;;;;;;;11.33;100.00;96494.00;4982165;28;20045;-64
2022/08/22 04:34:48;;;;;;;;;;;;;;;11.57;100.00;96500.09;5011029;28;20042;-64
2022/08/22 04:37:21;;;;;;;7.47;4.95;;;;;;;11.87;100.00;96505.44;5013498;28;20429;-64
2022/08/22 04:40:01;;;;;;;5.05;3.75;;;;;;;12.13;100.00;96509.97;5012709;28;20037;-64
2022/08/22 04:42:33;;;;;;;9.43;4.00;;;;;;;12.13;100.00;96509.97;5014461;28;20038;-65
2022/08/22 04:45:11;;;;;;;6.22;4.60;;;;;;;12.17;100.00;96513.56;5005158;28;20041;-65
2022/08/22 04:47:48;;;;;;;9.60;4.28;;;;;;;12.28;100.00;96505.41;5025034;28;20490;-65
2022/08/22 04:50:25;;;;;;;6.22;4.20;;;;;;;12.45;100.00;96512.16;5013802;28;20073;-64
2022/08/22 04:53:03;;;;;;;13.00;4.60;;;;;;;12.50;100.00;96511.00;5013032;28;20034;-64
2022/08/22 04:55:50;;;;;;;8.15;4.70;;;;;;;12.30;100.00;96508.53;5013737;28;20525;-64
2022/08/22 04:58:35;;;;;;;7.53;4.15;;;;;;;12.26;100.00;96513.19;5013590;28;20455;-64
2022/08/22 05:01:13;;;;;;;8.98;4.43;;;;;;;11.99;100.00;96516.16;5025862;28;20379;-64
2022/08/22 05:03:46;;;;;;;13.70;5.10;;;;;;;11.78;100.00;96516.75;5010623;28;20514;-64
2022/08/22 05:06:14;;;;;;;8.63;4.57;;;;;;;11.93;100.00;96528.66;5011687;28;20086;-64
2022/08/22 05:08:42;;;;;;;6.55;4.35;;;;;;;12.27;100.00;96525.78;5013437;28;20026;-64
2022/08/22 05:11:10;;;;;;;8.82;4.32;;;;;;;12.72;100.00;96526.44;5013695;28;20437;-64
2022/08/22 05:13:45;;;;;;;12.75;4.68;;;;;;;13.24;100.00;96529.00;5012271;28;20117;-64
2022/08/22 05:16:17;;;;;;;6.28;3.72;;;;;;;14.28;100.00;96533.88;5013167;28;20101;-63
2022/08/22 05:18:50;;;;;;;6.78;3.55;;;;;;;15.53;100.00;96535.44;5013293;28;20026;-64
2022/08/22 05:21:21;;;;;;;5.25;2.95;;;;;;;16.68;100.00;96542.84;5008342;28;20105;-65
2022/08/22 05:23:53;;;;;;;4.25;2.50;;;;;;;18.08;100.00;96534.78;5009127;28;20040;-65
2022/08/22 05:26:20;;;;;;;6.45;2.65;;;;;;;19.38;98.84;96544.34;5013078;28;20072;-65
2022/08/22 05:28:53;;;;;;;5.88;2.60;;;;;;;20.34;89.15;96544.13;5013268;28;20030;-65
2022/08/22 05:31:27;;;;;;;6.10;2.45;;;;;;;20.77;85.49;96542.28;5013382;28;20075;-66
2022/08/22 05:34:10;;;;;;;4.03;2.13;;;;;;;21.71;80.30;96540.47;5013423;28;20033;-65
2022/08/22 05:36:54;;;;;;;4.20;2.60;;;;;;;19.85;87.85;96549.69;5004438;28;20399;-66
2022/08/22 05:39:24;;;;;;;7.03;3.00;;;;;;;19.41;92.98;96543.44;5022384;28;20034;-65
2022/08/22 05:41:52;;;;;;;7.18;2.70;;;;;;;20.96;85.22;96541.38;5013281;28;20030;-65
2022/08/22 05:44:24;;;;;;;4.13;2.40;;;;;;;22.43;73.63;96552.94;5012830;28;20552;-63
2022/08/22 05:47:22;;;;;;;6.40;2.80;;;;;;;23.28;69.65;96547.66;5013941;28;20057;-63
2022/08/22 05:50:18;;;;;;;7.30;2.40;;;;;;;24.34;65.69;96552.38;5011651;28;20049;-64
2022/08/22 05:52:55;;;;;;;4.22;2.15;;;;;;;25.03;59.73;96547.56;5003408;28;20053;-64
2022/08/22 05:55:42;;;;;;;5.75;2.25;;;;;;;25.92;54.25;96550.38;5012661;28;20034;-64
2022/08/22 05:58:11;;;;;;;4.85;2.60;;;;;;;25.82;51.72;96557.25;5010711;28;20542;-64
2022/08/22 06:00:41;;;;;;;7.72;2.60;;;;;;;25.25;57.82;96560.66;5011805;28;20052;-66
2022/08/22 06:03:35;;;;;;;6.97;2.90;;;;;;;25.38;54.71;96566.84;5012739;28;20103;-66
2022/08/22 06:06:08;;;;;;;5.53;2.63;;;;;;;23.67;61.81;96560.16;5008349;28;20053;-67
2022/08/22 06:08:42;;;;;;;8.35;2.70;;;;;;;20.96;73.85;96554.53;5010583;28;20038;-67
2022/08/22 06:11:16;;;;;;;4.13;2.85;;;;;;;19.26;85.17;96549.31;4998842;28;20359;-66
2022/08/22 06:13:47;;;;;;;8.50;3.00;;;;;;;19.42;85.93;96548.59;5003611;28;20129;-66
2022/08/22 06:16:22;;;;;;;6.32;3.22;;;;;;;18.81;88.64;96548.97;4997454;28;20046;-65
2022/08/22 06:18:49;;;;;;;5.22;3.10;;;;;;;19.58;87.36;96538.75;5004160;28;20056;-65
2022/08/22 06:21:30;;;;;;;9.95;3.55;;;;;;;19.99;81.19;96548.56;4990545;28;20053;-66
2022/08/22 06:23:59;;;;;;;5.22;3.40;;;;;;;19.77;84.37;96542.72;5006279;28;20042;-65
2022/08/22 06:26:30;;;;;;;4.00;2.75;;;;;;;19.88;83.80;96548.03;4995205;28;20941;-67
2022/08/22 06:28:59;;;;;;;6.82;3.45;;;;;;;19.23;87.17;96543.81;5005765;28;20069;-66
2022/08/22 06:31:41;;;;;;;13.75;3.80;;;;;;;19.08;88.48;96548.88;4998147;28;20118;-65
2022/08/22 06:34:16;;;;;;;5.43;2.75;;;;;;;19.24;90.11;96546.16;5000422;28;20359;-65
2022/08/22 06:36:47;;;;;;;5.43;2.80;;;;;;;20.93;80.81;96541.47;5004206;28;20045;-66
2022/08/22 06:39:28;;;;;;;6.13;2.75;;;;;;;21.14;79.17;96545.66;4989875;28;20038;-65
2022/08/22 06:42:11;;;;;;;6.32;2.55;;;;;;;20.91;79.37;96543.91;5002114;28;20041;-66
2022/08/22 06:44:41;;;;;;;6.03;2.17;;;;;;;22.50;69.10;96549.16;4999577;28;20048;-65
2022/08/22 06:47:12;;;;;;;5.32;2.30;;;;;;;22.43;69.69;96550.16;4999234;28;20073;-65
2022/08/22 06:49:39;;;;;;;4.15;2.03;;;;;;;23.08;66.81;96554.38;5002347;28;20100;-66
2022/08/22 06:52:17;;;;;;;6.25;2.10;;;;;;;22.90;68.14;96546.59;4995279;28;20042;-64
2022/08/22 06:54:46;;;;;;;6.18;2.53;;;;;;;21.69;72.47;96540.13;5001401;28;20042;-65
2022/08/22 06:57:31;;;;;;;4.82;1.80;;;;;;;23.03;68.13;96535.34;4999542;28;20044;-66
2022/08/22 07:00:00;;;;;;;3.40;1.70;;;;;;;24.05;62.90;96527.59;5004844;28;20088;-66
2022/08/22 07:02:38;;;;;;;3.03;2.00;;;;;;;23.01;67.44;96537.03;4998085;28;20042;-66
2022/08/22 07:05:08;;;;;;;5.78;1.95;;;;;;;21.49;76.76;96529.97;4999887;28;20495;-65
2022/08/22 07:07:36;;;;;;;3.60;2.05;;;;;;;21.63;75.26;96541.91;5005155;28;20124;-65
2022/08/22 07:10:03;;;;;;;5.70;1.80;;;;;;;24.57;63.60;96541.91;4998607;28;20073;-66
2022/08/22 07:12:34;;;;;;;4.85;2.20;;;;;;;26.35;55.36;96551.16;4997160;28;20045;-66
2022/08/22 07:15:28;;;;;;;3.00;1.75;;;;;;;27.10;52.00;96546.63;5003326;28;20044;-66
2022/08/22 07:17:59;;;;;;;3.97;2.00;;;;;;;26.72;54.85;96553.75;4994732;28;20046;-65
2022/08/22 07:20:28;;;;;;;2.80;1.83;;;;;;;26.16;53.89;96553.25;4999315;28;20042;-65
2022/08/22 07:23:04;;;;;;;3.00;1.65;;;;;;;26.20;56.34;96558.69;5003759;28;20048;-65
2022/08/22 07:25:33;;;;;;;2.85;1.70;;;;;;;27.97;49.41;96560.47;5000965;28;20041;-65
2022/08/22 07:28:16;;;;;;;3.53;1.70;;;;;;;27.62;50.86;96572.41;5003677;28;20042;-65
2022/08/22 07:30:54;;;;;;;3.97;1.63;;;;;;;28.92;46.72;96571.59;5003431;28;20281;-65
2022/08/22 07:33:43;;;;;;;5.97;1.55;;;;;;;26.23;54.12;96578.16;4998106;28;20052;-66
2022/08/22 07:36:44;;;;;;;3.42;1.85;;;;;;;28.05;48.49;96572.13;4997452;28;20042;-66
2022/08/22 07:39:34;;;;;;;5.03;1.90;;;;;;;24.71;59.33;96569.31;4981094;28;20049;-66
2022/08/22 07:42:10;;;;;;;3.15;1.58;;;;;;;25.53;57.45;96566.97;4995962;28;20068;-66
2022/08/22 07:45:05;;;;;;;7.57;2.13;;;;;;;23.87;63.92;96563.88;5018532;28;20045;-67
2022/08/22 07:47:57;;;;;;;3.67;1.92;;;;;;;25.00;60.31;96556.88;4996544;28;20136;-64
2022/08/22 07:50:27;;;;;;;8.07;3.33;;;;;;;26.23;55.36;96560.56;4995417;28;20494;-65
2022/08/22 07:53:00;;;;;;;3.10;1.50;;;;;;;25.11;55.51;96562.78;5005125;28;20046;-65
2022/08/22 07:55:27;;;;;;;8.48;1.95;;;;;;;24.10;58.55;96566.16;5004640;28;20053;-64
2022/08/22 07:58:02;;;;;;;5.57;2.05;;;;;;;23.60;62.89;96554.84;5003591;28;20084;-65
2022/08/22 08:00:29;;;;;;;3.85;2.00;;;;;;;22.13;69.36;96551.53;5001342;28;20144;-66
2022/08/22 08:02:59;;;;;;;4.18;2.08;;;;;;;22.87;68.49;96555.09;5006538;28;20099;-66
2022/08/22 08:05:29;;;;;;;5.38;1.80;;;;;;;24.91;61.12;96554.84;5002234;28;20048;-66
2022/08/22 08:07:55;;;;;;;6.10;2.00;;;;;;;26.70;53.46;96553.44;5004132;28;20050;-67
2022/08/22 08:10:30;;;;;;;7.00;1.77;;;;;;;27.05;51.07;96561.34;4995410;28;20447;-66
2022/08/22 08:13:02;;;;;;;4.75;2.17;;;;;;;26.30;52.82;96563.03;5007479;28;20049;-67
2022/08/22 08:15:30;;;;;;;4.63;1.83;;;;;;;27.48;50.44;96553.50;5007638;28;20108;-66
2022/08/22 08:18:04;;;;;;;3.60;1.70;;;;;;;29.87;43.83;96556.22;5012974;28;20056;-66
2022/08/22 08:20:33;;;;;;;4.75;1.80;;;;;;;30.51;41.29;96564.69;5006086;28;20046;-66
2022/08/22 08:23:00;;;;;;;1.95;1.30;;;;;;;30.15;42.41;96561.34;5005721;28;20038;-65
2022/08/22 08:25:27;;;;;;;2.58;1.45;;;;;;;27.09;49.40;96561.91;5002119;28;20080;-65
2022/08/22 08:30:52;;;;;;;2.88;1.60;;;;;;;27.82;48.54;96568.13;5007833;28;20046;-65
2022/08/22 08:33:21;;;;;;;5.22;1.38;;;;;;;29.29;45.04;96567.44;5006886;28;20045;-65
2022/08/22 08:35:59;;;;;;;1.92;1.27;;;;;;;31.10;39.73;96568.84;5006546;28;20049;-65
2022/08/22 08:38:30;;;;;;;3.55;1.50;;;;;;;31.57;38.40;96563.63;4992389;28;20188;-65
2022/08/22 08:41:39;;;;;;;4.80;1.25;;;;;;;31.63;38.34;96575.72;5005935;28;20038;-67
2022/08/22 08:44:34;;;;;;;2.28;1.10;;;;;;;32.72;36.55;96567.47;4991663;28;20077;-65
2022/08/22 08:47:11;;;;;;;5.40;1.23;;;;;;;32.39;35.79;96568.28;5005579;28;20128;-65
2022/08/22 08:49:55;;;;;;;3.90;1.40;;;;;;;33.62;34.17;96568.38;5004614;28;20575;-65
2022/08/22 08:52:30;;;;;;;3.88;1.30;;;;;;;29.66;40.50;96561.94;5000087;28;20065;-67
2022/08/22 08:55:24;;;;;;;2.63;0.90;;;;;;;30.73;39.91;96558.38;5004933;28;20046;-66
2022/08/22 08:57:53;;;;;;;1.83;1.13;;;;;;;31.96;36.81;96557.22;5003840;28;20113;-65
2022/08/22 09:00:40;;;;;;;3.67;1.97;;;;;;;28.18;44.99;96566.97;5001151;28;20123;-65
2022/08/22 09:03:35;;;;;;;3.00;1.52;;;;;;;26.83;49.31;96561.63;5002524;28;20419;-64
2022/08/22 09:06:49;;;;;;;4.15;1.27;;;;;;;28.39;45.69;96564.94;5005601;28;20037;-65
2022/08/22 09:09:43;;;;;;;2.88;1.70;;;;;;;30.16;42.06;96548.75;4994084;28;20046;-65
2022/08/22 09:12:36;;;;;;;4.88;1.50;;;;;;;29.99;41.34;96559.94;5001492;28;20044;-65
2022/08/22 09:15:10;;;;;;;3.00;1.33;;;;;;;29.81;41.05;96556.19;5005611;28;20077;-64
2022/08/22 09:17:47;;;;;;;5.45;1.67;;;;;;;31.36;38.53;96552.47;5005694;28;20077;-65
2022/08/22 09:20:33;;;;;;;3.88;1.45;;;;;;;31.47;37.30;96557.38;5000262;28;20340;-66
2022/08/22 09:23:40;;;;;;;5.03;1.40;;;;;;;30.09;40.00;96547.19;4999576;28;20502;-67
2022/08/22 09:26:17;;;;;;;2.60;1.10;;;;;;;31.44;38.08;96547.88;5001554;28;20050;-65
2022/08/22 09:28:42;;;;;;;4.82;1.00;;;;;;;30.18;38.45;96560.31;5004947;28;20100;-65
2022/08/22 09:31:31;;;;;;;3.43;1.20;;;;;;;30.14;40.63;96548.47;5014928;28;20042;-65
2022/08/22 09:34:17;;;;;;;5.73;1.37;;;;;;;27.98;42.66;96550.00;5004916;28;20280;-65
2022/08/22 09:37:09;;;;;;;4.47;1.35;;;;;;;26.39;46.69;96548.94;4996100;28;20038;-65
2022/08/22 09:39:41;;;;;;;2.28;1.40;;;;;;;27.08;45.07;96544.28;4993908;28;20050;-65
2022/08/22 09:42:28;;;;;;;5.80;1.60;;;;;;;25.34;49.96;96538.22;4999849;28;20053;-66
2022/08/22 09:45:18;;;;;;;4.82;1.70;;;;;;;27.03;47.49;96532.94;5004836;28;20041;-66
2022/08/22 09:47:57;;;;;;;3.00;1.63;;;;;;;28.28;42.36;96535.88;5004556;28;20129;-66
2022/08/22 09:50:34;;;;;;;3.67;1.73;;;;;;;24.93;49.63;96523.56;4994916;28;20268;-66
2022/08/22 09:53:40;;;;;;;7.28;1.88;;;;;;;25.14;50.75;96536.63;4994735;28;20042;-66
2022/08/22 09:56:18;;;;;;;4.15;1.70;;;;;;;25.91;51.18;96526.34;4998900;28;20034;-66
2022/08/22 09:59:12;;;;;;;3.88;1.50;;;;;;;27.43;45.18;96526.81;5004205;28;20105;-66
2022/08/22 10:01:56;;;;;;;3.75;1.52;;;;;;;27.29;45.49;96530.38;5004440;28;20046;-66
2022/08/22 10:04:27;;;;;;;3.50;1.95;;;;;;;26.23;48.79;96526.88;4997471;28;20476;-64
2022/08/22 10:07:30;;;;;;;4.22;1.67;;;;;;;25.45;52.45;96523.72;5004598;28;20069;-66
2022/08/22 10:10:05;;;;;;;4.30;1.80;;;;;;;28.66;43.68;96523.59;5004542;28;20042;-66
2022/08/22 10:12:40;;;;;;;3.22;1.90;;;;;;;29.64;40.24;96529.81;5002369;28;20053;-66
2022/08/22 10:15:09;;;;;;;2.60;1.80;;;;;;;31.09;37.81;96522.06;4999992;28;20036;-64
2022/08/22 10:17:42;;;;;;;2.80;1.40;;;;;;;31.86;35.99;96524.78;5004622;28;20054;-67
2022/08/22 10:20:23;;;;;;;7.43;2.10;;;;;;;32.37;37.92;96519.84;4995189;28;20042;-66
2022/08/22 10:22:54;;;;;;;5.10;2.00;;;;;;;31.01;39.20;96521.78;5001130;28;20042;-66
2022/08/22 10:25:46;;;;;;;6.32;2.67;;;;;;;29.46;42.23;96517.63;5007139;28;20042;-66
2022/08/22 10:28:15;;;;;;;4.03;1.65;;;;;;;28.91;43.88;96515.72;5005451;28;20073;-66
2022/08/22 10:30:46;;;;;;;;;;;;;;;30.00;41.43;96505.78;5008280;28;20046;-67
2022/08/22 10:33:53;;;;;;;5.18;1.92;;;;;;;30.74;38.43;96509.03;4997440;28;20003;-64
2022/08/22 10:36:41;;;;;;;3.40;1.73;;;;;;;28.70;39.34;96504.47;4990667;28;20053;-66
2022/08/22 10:39:14;;;;;;;4.05;1.90;;;;;;;27.51;41.62;96512.34;4999286;28;20502;-67
2022/08/22 10:42:16;;;;;;;5.53;3.50;;;;;;;26.87;40.49;96512.44;5004083;28;20446;-66
2022/08/22 10:44:53;;;;;;;4.25;2.00;;;;;;;26.04;43.57;96507.31;5000039;28;20177;-66
2022/08/22 10:47:38;;;;;;;4.05;2.05;;;;;;;26.46;43.56;96520.50;4991864;28;20034;-66
2022/08/22 10:50:17;;;;;;;2.63;1.67;;;;;;;27.92;40.90;96513.31;4981747;28;20053;-67
2022/08/22 10:52:50;;;;;;;6.03;1.80;;;;;;;26.96;42.07;96516.44;5003184;28;20403;-66
2022/08/22 10:55:23;;;;;;;4.05;1.98;;;;;;;27.41;39.69;96526.50;4998702;28;20042;-67
2022/08/22 10:58:08;;;;;;;2.72;1.83;;;;;;;25.78;41.16;96520.97;5002430;28;20060;-67
2022/08/22 11:00:43;;;;;;;5.75;2.25;;;;;;;25.21;43.79;96517.94;4998723;28;20045;-67
2022/08/22 11:03:27;;;;;;;3.78;2.40;;;;;;;24.84;43.79;96515.19;4999653;28;20111;-67
2022/08/22 11:06:26;;;;;;;6.25;2.35;;;;;;;25.15;44.99;96515.00;5003816;28;20052;-66
2022/08/22 11:09:16;;;;;;;5.07;2.00;;;;;;;25.17;40.08;96512.50;5003497;28;20041;-66
2022/08/22 11:12:02;;;;;;;8.57;2.17;;;;;;;25.13;41.62;96517.50;4995239;28;20608;-66
2022/08/22 11:15:04;;;;;;;4.45;2.00;;;;;;;25.28;41.10;96512.03;4994885;28;20057;-66
2022/08/22 11:18:12;;;;;;;5.22;2.10;;;;;;;25.65;40.73;96515.53;5002625;28;20037;-65
2022/08/22 11:20:47;;;;;;;11.10;5.93;;;;;;;25.91;40.39;96506.72;5003737;28;20050;-65
2022/08/22 11:23:24;;;;;;;4.10;2.20;;;;;;;25.93;39.49;96505.03;4999820;28;20379;-66
2022/08/22 11:26:25;;;;;;;3.88;2.13;;;;;;;26.25;40.43;96508.31;5002548;28;20041;-65
2022/08/22 11:29:01;;;;;;;3.88;2.25;;;;;;;26.92;38.77;96502.59;4999145;28;20446;-65
2022/08/22 11:31:55;;;;;;;4.75;2.50;;;;;;;26.32;38.38;96502.31;4998316;28;20057;-66
2022/08/22 11:34:36;;;;;;;5.05;2.40;;;;;;;26.16;40.66;96494.31;4995239;28;20034;-66
2022/08/22 11:37:35;;;;;;;4.93;2.38;;;;;;;26.69;39.97;96492.94;5016506;28;20037;-65
2022/08/22 11:40:09;;;;;;;5.73;3.63;;;;;;;26.09;42.25;96494.66;5011123;28;20087;-65
2022/08/22 11:43:06;;;;;;;4.18;2.65;;;;;;;25.74;44.24;96486.69;5010102;28;20056;-66
2022/08/22 11:45:41;;;;;;;7.88;2.72;;;;;;;25.53;44.37;96488.47;5007499;28;20053;-65
2022/08/22 11:48:48;;;;;;;5.85;2.28;;;;;;;26.48;42.27;96478.69;4995410;28;20038;-65
2022/08/22 11:51:39;;;;;;;3.88;2.25;;;;;;;26.89;41.47;96483.88;4952382;28;20462;-65
2022/08/22 11:54:20;;;;;;;3.42;2.47;;;;;;;25.56;44.36;96484.72;4985692;28;20111;-66
2022/08/22 11:56:54;;;;;;;7.10;2.40;;;;;;;25.74;42.10;96484.66;5006777;28;20048;-66
2022/08/22 11:59:20;;;;;;;3.70;2.22;;;;;;;26.35;42.68;96477.38;4998044;28;20041;-66
2022/08/22 12:01:51;;;;;;;6.47;2.25;;;;;;;27.45;41.11;96476.47;5007709;28;20094;-66
2022/08/22 12:04:20;;;;;;;5.25;2.72;;;;;;;27.42;40.96;96485.09;4996087;28;20084;-65
2022/08/22 12:06:49;;;;;;;3.65;2.17;;;;;;;27.09;42.59;96472.75;5008889;28;20491;-66
2022/08/22 12:09:23;;;;;;;5.18;2.72;;;;;;;26.43;42.72;96484.19;5003982;28;20132;-65
2022/08/22 12:11:58;;;;;;;5.82;2.30;;;;;;;26.00;45.27;96478.69;5024172;28;20034;-66
2022/08/22 12:14:36;;;;;;;6.50;2.63;;;;;;;25.90;42.78;96477.91;5005316;28;20041;-66
2022/08/22 12:17:23;;;;;;;4.65;2.20;;;;;;;25.46;45.33;96467.16;5010540;28;20038;-65
2022/08/22 12:20:04;;;;;;;7.05;2.53;;;;;;;25.53;44.42;96463.25;5011147;28;20107;-65
2022/08/22 12:22:51;;;;;;;5.60;2.08;;;;;;;26.55;43.26;96459.94;5010178;28;20053;-65
2022/08/22 12:25:38;;;;;;;3.67;2.30;;;;;;;26.57;42.96;96460.22;4999936;28;20133;-65
2022/08/22 12:28:19;;;;;;;5.43;2.38;;;;;;;26.20;43.34;96466.88;5006060;28;20052;-64
2022/08/22 12:31:12;;;;;;;4.07;2.25;;;;;;;26.60;43.61;96454.41;5007457;28;20479;-65
2022/08/22 12:33:55;;;;;;;6.55;2.75;;;;;;;26.15;43.72;96449.91;4999514;28;20046;-65